Airfield :
LOGIN :

Register | Disclaimer

   EN    FR    IT 

 










Legend :    VFR   Marginal VFR   IFR   Intensive IFR   Very Intensive IFR
Visi :
Ceiling :
>= 8 km
>= 3000ft
5 to 8 km
1000 to 3000 ft
1500m to 5 km
500 to 1000 ft
800 to 1500m
200 to 500 ft
< 800m
< 200 ft
Symbols :   Thunderstorms  Fog  Heavy snow  Heavy precipitations  Wind > 20 kt
SIGMETs :     Misc.  Thunderstorms  Icing  Turbulence  Mountain Waves  Volcanic Ashes







- Airport Elevation : 72 ft
- IATA code : UDE


EHVK - Volkel Airbase

CURRENT METAR :
  • 141725Z AUTO 28004KT 240V030 9999 FEW023 SCT032 BKN046 20/16 Q1016 BLU

EXPIRED METARs :
  • 141700Z AUTO 29005KT 250V340 9999 FEW023 SCT029 BKN032 21/16 Q1016 BLU
  • 141655Z AUTO 31005KT 240V340 9999 BKN022 OVC026 21/15 Q1016 WHT
  • 141633Z AUTO 28005KT 230V360 9999 BKN023 BKN026 BKN029 20/16 Q1016 WHT
  • 141629Z AUTO 28004KT 230V360 9999 SCT023 SCT026 BKN035 21/16 Q1016 WHT
  • 141615Z AUTO 28004KT 240V320 9999 FEW028 BKN040 BKN046 20/17 Q1016 BLU
  • 141602Z AUTO 28004KT 230V340 9999 -RADZ FEW021 SCT025 BKN030 19/16 Q1016 BLU
  • 141555Z AUTO 27006KT 230V330 9000 SHRA SCT021 OVC025 19/16 Q1016 WHT
  • 141525Z AUTO 29007KT 250V330 9999 SCT028 BKN031 OVC037 21/15 Q1016 BLU
  • 141455Z AUTO 29007KT 240V010 9999 BKN030 BKN036 BKN040 22/14 Q1015 BLU

TAF TAF EHVK
Valid from the 14 at 09:00 until the 14 at 21:00 UTC


140842Z 1409/1421 27006KT 9999 SCT025
PROB40
TEMPO 1410/1417 29009G19KT
No reported NOTAMs for that airfield.



MET'MAP, your aeronautical weather chart ! - Copyright ORBIFLY December 2007 - Disclaimer

ORBIFLY MET'MAP TEAM :

Programming & Development : Alexandra Zaïnal
Concept & Development : Baudouin d'Aumeries
Co-Development & Prog : Marc-Olivier Méhu
Technical & hardware support : Manuel Goepfert

Contact : metmap@orbifly.com




SOURCES & CREDITS :

   NOAA